San Lorenzo, CA

6:45 PM PST on November 23, 2014 (GMT -0800)
Hayward Executive | Change Station
CLOSE
Current Station
Airport
Location: Hayward,
Elevation: 46 ft
Nearby Weather Stations

Elev 46 ft 37.66 °N, 122.12 °W | Updated 51 minutes ago

Clear
Clear
57 °F
Feels Like 57 °F
N
0
Wind Variable Wind from North

Today
High -- | Low -- °F
--% Chance of Precip.
Yesterday
High -- | Low -- °F
Precip. -- in
6:56 AM 4:52 PM
Waxing Crescent, 3% visible
Pressure 30.31 in
Visibility 10.0 miles
Clouds Clear
Dew Point 44 °F
Humidity 62%
Rainfall 0.00 in
Snow Depth Not available.
UV 0 out of 12
Pollen 2.30 out of 12
Air Quality Not available.
Flu Activity Not available.
METAR KHWD 240154Z 00000KT 10SM CLR 14/07 A3028 RMK AO2 SLP262 T01390067

More Conditions Fewer Conditions

Pressure 30.31 in
Visibility 10.0 miles
Clouds Clear
Dew Point 44 °F
Humidity 62%
Rainfall 0.00 in
Snow Depth Not available.
UV 0 out of 12
Pollen 2.30 out of 12
Air Quality Not available.
Flu Activity Not available.
METAR KHWD 240154Z 00000KT 10SM CLR 14/07 A3028 RMK AO2 SLP262 T01390067

More Conditions Fewer Conditions

10-Day Weather Forecast

Almanac

Astronomy

Nov. 23, 2014 Rise Set
Actual Time
Civil Twilight
Nautical Twilight
Astronomical Twilight
Moon
Length of Visible Light
Length of Day
Tomorrow will be .
, % of the Moon is Illuminated

Today's Extremes

State Highs State Lows

Community

WunderPhotos

Upload Photos

1,773,257 photos uploaded!

WunderBlogs® & News

Nearby

Air Quality

  Air Quality AQ Index Pollutant
Not available.

Snow Depth

Station Depth Elevation

Earthquake Activity

City Distance Mag. Time & Date
Minimum magnitude displayed is 2.5.

Coastal Water Temperatures

Place Temperature

Nearby Weather Stations